This is the latest recevied weather packets stored in our database for station/object OK0BPL-5. If no packets are shown the sender has not sent any weather packets the latest 10 day(s).
| Time | Temp. | Humidity | Pressure | Rain* | Wind** | Luminosity | Snow |
|---|---|---|---|---|---|---|---|
| 1787722532 | 16.11° C | 88% | 1042.9 hPa | 0 mm | - | 26 W/m² | - |
| 1787721632 | 16.11° C | 89% | 1043.2 hPa | 0 mm | - | 19 W/m² | - |
| 1787721632 | 16.11° C | 89% | 1043.2 hPa | 0 mm | - | 19 W/m² | - |
| 1787720732 | 15.56° C | 91% | 1043.6 hPa | 0 mm | - | 8 W/m² | - |
| 1787720732 | 15.56° C | 91% | 1043.6 hPa | 0 mm | - | 8 W/m² | - |
| 1787719832 | 15.56° C | 93% | 1043.6 hPa | 0 mm | - | 4 W/m² | - |
| 1787719832 | 15.56° C | 93% | 1043.6 hPa | 0 mm | - | 4 W/m² | - |
| 1787718932 | 15.56° C | 93% | 1043.5 hPa | 0 mm | - | 2 W/m² | - |
| 1787718032 | 15.56° C | 93% | 1043.5 hPa | 0 mm | - | 1 W/m² | - |
| 1787718032 | 15.56° C | - | - | - | - | - | - |
| 1787717132 | 15.56° C | 92% | 1043.4 hPa | 0 mm | - | 0 W/m² | - |
| 1787717132 | 15.56° C | 92% | 1043.4 hPa | 0 mm | - | 0 W/m² | - |
| 1787716232 | 15.56° C | 92% | 1043.4 hPa | 0 mm | - | 0 W/m² | - |
| 1787715332 | 15.56° C | 90% | 1043.1 hPa | 0 mm | - | 0 W/m² | - |
| 1787715332 | 15.56° C | 90% | 1043.1 hPa | 0 mm | - | 0 W/m² | - |
| 1787714432 | 15.56° C | 90% | 1042.9 hPa | 0 mm | - | 0 W/m² | - |
| 1787714432 | 15.56° C | 90% | 1042.9 hPa | 0 mm | - | 0 W/m² | - |
| 1787712632 | 16.11° C | 88% | 1042.8 hPa | 0 mm | - | 0 W/m² | - |
| 1787712632 | 16.11° C | 88% | 1042.8 hPa | 0 mm | - | 0 W/m² | - |
| 1787711732 | 16.11° C | 88% | 1042.6 hPa | 0 mm | - | 0 W/m² | - |
| 1787711732 | 16.11° C | 88% | 1042.6 hPa | 0 mm | - | 0 W/m² | - |
| 1787710832 | 16.11° C | 86% | 1042.5 hPa | 0 mm | - | 0 W/m² | - |
| 1787710832 | 16.11° C | 86% | 1042.5 hPa | 0 mm | - | 0 W/m² | - |
| 1787709932 | 16.11° C | 85% | 1042.4 hPa | 0 mm | - | 0 W/m² | - |
| 1787709932 | 16.11° C | 85% | 1042.4 hPa | 0 mm | - | 0 W/m² | - |
* Rain latest hour (hover to see other rain measurements)
** Current wind speed in m/s (hover to see current wind gust speed)